KGUS

Grissom ARB Airport

Peru, Indiana, USA
TAF AMD KGUS 210938Z 2109/2209 22009KT 9999 OVC015 QNH2967INS BECMG 2117/2118 25010G15KT 9000 -SHRA BKN015 OVC030 QNH2970INS TEMPO 2120/2124 25015G25KT 8000 -TSRA SCT010 OVC020CB BECMG 2202/2203 25010G15KT 9999 NSW OVC010 QNH2970INS TX24/2120Z TN18/2111Z
Issued Valid From Valid To
Jul-21 @ 09:38 UTC
(23 minutes ago)
Jul-21 @ 09:00 UTC
(an hour ago)
Jul-22 @ 09:00 UTC
(in 23 hours)
Jul-21 @ 09:00 to Jul-21 @ 17:00
TAF AMD KGUS 210938Z 2109/2209 22009KT 9999 OVC015 QNH2967INS
Wind Visibility Clouds Readings
220° at 9 knots Greater than 6 miles
  • Overcast at 1,500' AGL
Altimeter 29.68" Hg
Pressure 1005 hPa
Becoming Jul-21 @ 17:00 to Jul-22 @ 02:00
BECMG 2117/2118 25010G15KT 9000 -SHRA BKN015 OVC030 QNH2970INS
Wind Visibility Clouds Conditions Readings
250° at 10 knots
 Gusting to 15 knots
51/59 miles
  • Broken at 1,500' AGL
  • Overcast at 3,000' AGL
  • Light Rain
Altimeter 29.7" Hg
Pressure 1006 hPa
Temporary Jul-21 @ 20:00 to Jul-22 @ 00:00
TEMPO 2120/2124 25015G25KT 8000 -TSRA SCT010 OVC020CB
Wind Visibility Clouds Conditions
250° at 15 knots
 Gusting to 25 knots
41/97 miles
  • Scattered at 1,000' AGL
  • Overcast at 2,000' AGL
  • Light Thunderstorm
  • Light Rain
Becoming Jul-22 @ 02:00 to Jul-22 @ 09:00
BECMG 2202/2203 25010G15KT 9999 NSW OVC010 QNH2970INS TX24/2120Z TN18/2111Z
Wind Visibility Clouds Conditions Readings
250° at 10 knots
 Gusting to 15 knots
Greater than 6 miles
  • Overcast at 1,000' AGL
Altimeter 29.7" Hg
Pressure 1006 hPa
TAF AMD KGUS 210938Z 2109/2209 22009KT 9999 OVC015 QNH2967INS BECMG 2117/2118 25010G15KT 9000 -SHRA BKN015 OVC030 QNH2970INS TEMPO 2120/2124 25015G25KT 8000 -TSRA SCT010 OVC020CB BECMG 2202/2203 25010G15KT 9999 NSW OVC010 QNH2970INS TX24/2120Z TN18/2111Z
Issued Jul-21 @ 09:38 UTC
(23 minutes ago)
Valid From Jul-21 @ 09:00 UTC
(an hour ago)
Valid To Jul-22 @ 09:00 UTC
(in 23 hours)
Jul-21 @ 09:00 - Jul-21 @ 17:00
Wind Visibility
220° at 9 knots Greater than 6 miles
Clouds
  • Overcast at 1,500' AGL
Becoming Jul-21 @ 17:00 - Jul-22 @ 02:00
Wind Visibility
250° at 10 knots
 Gusting to 15 knots
51/59 miles
Clouds
  • Broken at 1,500' AGL
  • Overcast at 3,000' AGL
Conditions
  • Light Rain
Temporary Jul-21 @ 20:00 - Jul-22 @ 00:00
Wind Visibility
250° at 15 knots
 Gusting to 25 knots
41/97 miles
Clouds
  • Scattered at 1,000' AGL
  • Overcast at 2,000' AGL
Conditions
  • Light Thunderstorm
  • Light Rain
Becoming Jul-22 @ 02:00 - Jul-22 @ 09:00
Wind Visibility
250° at 10 knots
 Gusting to 15 knots
Greater than 6 miles
Clouds
  • Overcast at 1,000' AGL
Conditions